Flight Track Log - Related Links

Times and Time Zones

All times are in EDT time to prevent confusion due to time zone crossing. See the PCM8798 flight status page for this flight to view local times or setup timezone preferences in your user account.

Time Position Orientation Groundspeed Altitude Reporting Facility
EDT Latitude Longitude Course Direction KTS MPH feet Rate Location/Type
Sat 10:35:58 AM 36.0825 -115.1581 294° West 88 101 2,800  Level Los Angeles Center
Sat 10:37:03 AM 36.0972 -115.1992 294° West 120 138 3,600 756 Climbing Los Angeles Center
Sat 10:38:05 AM 36.1225 -115.2233 322° Northwest 123 142 4,400 829 Climbing Los Angeles Center
Sat 10:39:06 AM 36.1500 -115.2128 17° North 117 135 5,300 829 Climbing Los Angeles Center
Sat 10:40:08 AM 36.1586 -115.1761 74° East 112 129 6,100 780 Climbing Los Angeles Center
Sat 10:41:09 AM 36.1689 -115.1392 71° East 113 130 6,900 683 Climbing Los Angeles Center
Sat 10:42:11 AM 36.1808 -115.1014 69° East 116 133 7,500 634 Climbing Los Angeles Center
Sat 10:43:12 AM 36.1942 -115.0619 67° East 122 140 8,200 732 Climbing Los Angeles Center
Sat 10:44:14 AM 36.2092 -115.0228 65° Northeast 125 144 9,000 774 Climbing Los Angeles Center
Sat 10:45:16 AM 36.2264 -114.9789 64° Northeast 120 138 9,800 683 Climbing Los Angeles Center
Sat 10:46:17 AM 36.2497 -114.9478 47° Northeast 123 142 10,400 585 Climbing Los Angeles Center
Sat 10:47:19 AM 36.2722 -114.9164 48° Northeast 123 142 11,000 341 Climbing Los Angeles Center
Sat 10:48:20 AM 36.2989 -114.8811 47° Northeast 134 154 11,100  Climbing Los Angeles Center
Sat 10:49:22 AM 36.3269 -114.8444 46° Northeast 144 166 11,000 -49 Descending Los Angeles Center
Sat 10:50:23 AM 36.3558 -114.8064 47° Northeast 150 173 11,000  Level Los Angeles Center
Sat 10:51:25 AM 36.3853 -114.7703 45° Northeast 150 173 11,000  Level Los Angeles Center
Sat 10:52:39 AM 36.4192 -114.7267 46° Northeast 147 169 11,000  Level Los Angeles Center
Sat 10:53:40 AM 36.4483 -114.6897 46° Northeast 149 171 11,000  Level Los Angeles Center
Sat 10:54:42 AM 36.4850 -114.6439 45° Northeast 154 177 11,000  Level Los Angeles Center
Sat 10:55:45 AM 36.5144 -114.6067 45° Northeast 153 176 11,000  Level Los Angeles Center
Sat 10:56:45 AM 36.5447 -114.5694 45° Northeast 152 175 11,000 49 Level Los Angeles Center
Sat 10:57:47 AM 36.5722 -114.5306 49° Northeast 153 176 11,100 48 Climbing Los Angeles Center
Sat 10:58:49 AM 36.6008 -114.4931 46° Northeast 151 174 11,100  Level Los Angeles Center
Sat 10:59:50 AM 36.6314 -114.4567 44° Northeast 151 174 11,100  Level Los Angeles Center
Sat 11:00:52 AM 36.6658 -114.4114 47° Northeast 151 174 11,100  Level Los Angeles Center
Sat 11:01:54 AM 36.6939 -114.3733 47° Northeast 150 173 11,100  Level Los Angeles Center
Sat 11:02:55 AM 36.7242 -114.3358 45° Northeast 152 175 11,100  Level Los Angeles Center
Sat 11:03:57 AM 36.7539 -114.2992 45° Northeast 152 175 11,100 -48 Level Los Angeles Center
Sat 11:04:59 AM 36.7742 -114.2539 61° Northeast 151 174 11,000  Descending Los Angeles Center
Sat 11:06:00 AM 36.7936 -114.2083 62° Northeast 149 171 11,100  Climbing Los Angeles Center
Sat 11:07:02 AM 36.8083 -114.1583 70° East 152 175 11,000  Descending Los Angeles Center
Sat 11:08:04 AM 36.8247 -114.1100 67° East 152 175 11,100 48 Climbing Los Angeles Center
Sat 11:09:06 AM 36.8431 -114.0517 69° East 151 174 11,100  Level Los Angeles Center
Sat 11:10:07 AM 36.8589 -114.0039 67° East 150 173 11,100  Level Los Angeles Center
Sat 11:11:09 AM 36.8753 -113.9556 67° East 151 174 11,100 -242 Level Los Angeles Center
Sat 11:12:11 AM 36.8894 -113.9053 71° East 153 176 10,600 -293 Descending Los Angeles Center
Sat 11:13:12 AM 36.9075 -113.8483 68° East 164 189 10,500 -195 Descending Los Angeles Center
Sat 11:14:14 AM 36.9242 -113.7972 68° East 162 186 10,200 -629 Descending Los Angeles Center
Sat 11:15:16 AM 36.9419 -113.7453 67° East 162 186 9,200 -1,024 Descending Los Angeles Center
Sat 11:16:17 AM 36.9619 -113.6861 67° East 179 206 8,100 -1,024 Descending Los Angeles Center
Sat 11:17:19 AM 36.9797 -113.6297 68° East 177 204 7,100 -774 Descending Los Angeles Center
Sat 11:18:21 AM 36.9936 -113.5722 73° East 174 200 6,500 -927 Descending Los Angeles Center
Sat 11:19:22 AM 37.0131 -113.5050 70° East 173 199 5,200 -1,279 Descending Los Angeles Center
Sat 11:21:00 AM 37.0333 -113.5000 39° Northeast  Level FlightAware Approximate
Sat 11:28:00 AM 37.0364 -113.5103 39° Northeast  Level Estimated

Login

Don't have an account? Register now (free) for customized features, flight alerts, and more!